Welcome to Northern Hawkes Bay. New Zealand.
PWS Header
      nz Flag



Hit Counter


W3C Valid W3C Valid logo


    Wairoa

Select any of the Stations below to visit their websites.










Historic Data from Weather Underground
Select the location of interest below. Wairoa is the default. Please have patience, this Data is slow to load in.
Northern Hawkes Bay Historical Data
Daily Summary for March 24, 2017 Units:  English    Metric   Both
« Previous Day
Next Day »
Daily Weekly Monthly Yearly Custom
  High: Low: Average:
Temperature: 78.1 °F 56.1 °F 65.8 °F
Dew Point: 64.8 °F 55.9 °F 59.4 °F
Humidity: 99% 59% 81%
Wind Speed: 10.7mph 0mph 2.5mph
Wind Gust: 14.5mph - -
Wind- - SW
Pressure: 30.1 in 29.8 in -
Precipitation: 0.01 in    
Historical Graphs
 
 
Tabular Data for March 24, 2017
Time Temperature Dew Point Pressure Wind Wind Speed Wind Gust Humidity Rainfall Rate (Hourly) solar
00:00 59.9 °F 59.2 °F 30.1 in Calm     97% 0 in 0 W/m2
00:06 59.4 °F 58.5 °F 30.1 in Calm     97% 0 in 0 W/m2
00:12 60.1 °F 59.2 °F 30.1 in Calm   2.2 mph 97% 0 in 0 W/m2
00:18 60.6 °F 59.7 °F 30.1 in Calm   0.7 mph 97% 0 in 0 W/m2
00:24 59.9 °F 59.2 °F 30.1 in Calm     97% 0 in 0 W/m2
00:30 59.9 °F 59.2 °F 30.1 in Calm     97% 0 in 0 W/m2
00:36 59.9 °F 59.2 °F 30.1 in Calm     97% 0 in 0 W/m2
00:42 59.5 °F 58.6 °F 30.1 in Calm     97% 0 in 0 W/m2
00:48 59.7 °F 58.8 °F 30.1 in Calm     97% 0 in 0 W/m2
00:54 59.7 °F 58.8 °F 30.1 in Calm     97% 0 in 0 W/m2
01:00 59.5 °F 59 °F 30.1 in Calm     98% 0 in 0 W/m2
01:06 59.2 °F 58.3 °F 30.1 in Calm     97% 0 in 0 W/m2
01:12 59.2 °F 58.6 °F 30.1 in Calm     98% 0 in 0 W/m2
01:18 59.2 °F 58.3 °F 30.1 in Calm     97% 0 in 0 W/m2
01:24 59.2 °F 58.3 °F 30.1 in Calm     97% 0 in 0 W/m2
01:30 59.4 °F 58.5 °F 30.1 in Calm     97% 0 in 0 W/m2
01:36 59.2 °F 58.6 °F 30.1 in Calm     98% 0 in 0 W/m2
01:42 59.2 °F 58.6 °F 30.1 in Calm     98% 0 in 0 W/m2
01:48 59.2 °F 58.6 °F 30.1 in Calm     98% 0 in 0 W/m2
01:54 59.2 °F 58.6 °F 30.1 in Calm     98% 0 in 0 W/m2
02:00 59 °F 58.5 °F 30.1 in Calm     98% 0 in 0 W/m2
02:06 58.8 °F 58.6 °F 30.1 in Calm     99% 0 in 0 W/m2
02:12 58.6 °F 58.5 °F 30.1 in Calm     99% 0 in 0 W/m2
02:18 58.6 °F 58.5 °F 30.1 in Calm     99% 0 in 0 W/m2
02:24 58.6 °F 58.5 °F 30.1 in Calm     99% 0 in 0 W/m2
02:30 58.5 °F 58.3 °F 30.1 in Calm     99% 0 in 0 W/m2
02:36 58.3 °F 57.9 °F 30.1 in Calm     99% 0 in 0 W/m2
02:42 57.9 °F 57.7 °F 30.1 in Calm     99% 0 in 0 W/m2
02:48 57.9 °F 57.7 °F 30.1 in Calm     99% 0 in 0 W/m2
02:54 57.9 °F 57.7 °F 30.1 in Calm     99% 0 in 0 W/m2
03:00 57.4 °F 57 °F 30.1 in Calm     99% 0 in 0 W/m2
03:06 57 °F 56.8 °F 30 in Calm     99% 0 in 0 W/m2
03:18 57.4 °F 57 °F 30 in Calm     99% 0 in 0 W/m2
03:24 57 °F 56.8 °F 30 in Calm     99% 0 in 0 W/m2
03:30 57 °F 56.8 °F 30 in Calm     99% 0 in 0 W/m2
03:36 56.7 °F 56.5 °F 30 in Calm     99% 0 in 0 W/m2
03:42 56.7 °F 56.5 °F 30 in Calm     99% 0 in 0 W/m2
03:48 57 °F 56.8 °F 30 in Calm     99% 0 in 0 W/m2
03:54 56.8 °F 56.7 °F 30 in Calm     99% 0 in 0 W/m2
04:00 56.5 °F 56.1 °F 30 in Calm     99% 0 in 0 W/m2
04:06 56.3 °F 55.9 °F 30 in Calm     99% 0 in 0 W/m2
04:12 56.5 °F 56.1 °F 30 in Calm     99% 0 in 0 W/m2
04:18 56.5 °F 56.1 °F 30 in Calm     99% 0 in 0 W/m2
04:24 56.3 °F 55.9 °F 30 in Calm     99% 0 in 0 W/m2
04:30 56.1 °F 55.9 °F 30 in Calm     99% 0 in 0 W/m2
04:36 56.1 °F 55.9 °F 30 in Calm     99% 0 in 0 W/m2
04:42 56.7 °F 56.5 °F 30 in Calm     99% 0 in 0 W/m2
04:48 56.8 °F 56.7 °F 30 in Calm     99% 0 in 0 W/m2
04:54 56.8 °F 56.7 °F 30 in Calm     99% 0 in 0 W/m2
05:00 56.7 °F 56.5 °F 30 in Calm     99% 0 in 0 W/m2
05:06 56.7 °F 56.5 °F 30 in Calm     99% 0 in 0 W/m2
05:12 56.8 °F 56.7 °F 30 in Calm     99% 0 in 0 W/m2
05:18 56.8 °F 56.7 °F 30 in Calm     99% 0 in 0 W/m2
05:24 57 °F 56.8 °F 30 in Calm   2.2 mph 99% 0 in 0 W/m2
05:30 56.8 °F 56.7 °F 30 in Calm   2.2 mph 99% 0 in 0 W/m2
05:36 56.8 °F 56.7 °F 30 in Calm     99% 0 in 0 W/m2
05:42 57.2 °F 56.8 °F 30 in Calm     99% 0 in 0 W/m2
05:48 57.4 °F 57 °F 30 in Calm   3.8 mph 99% 0 in 0 W/m2
06:00 57.4 °F 57 °F 30 in Calm   6 mph 99% 0 in 0 W/m2
06:06 57.4 °F 57 °F 30 in NNW 3.1 mph 6 mph 99% 0 in 0 W/m2
06:08 57.4 °F 57 °F 30 in NNW 0.7 mph 6 mph 99% 0 in 0 W/m2
06:14 57.6 °F 57.4 °F 30 in North 3.8 mph 6 mph 99% 0 in 0 W/m2
06:20 57.7 °F 57.6 °F 30 in North 3.8 mph 6 mph 99% 0 in 0 W/m2
06:26 57.9 °F 57.7 °F 30 in Calm   5.4 mph 99% 0 in 0 W/m2
06:32 57.9 °F 57.7 °F 30 in Calm   5.4 mph 99% 0 in 0 W/m2
06:38 57.7 °F 57.6 °F 30 in Calm     99% 0 in 0 W/m2
06:44 57.7 °F 57.6 °F 30 in NNW 2.2 mph 5.4 mph 99% 0 in 0 W/m2
06:50 57.7 °F 57.6 °F 30 in NNW 0.7 mph 5.4 mph 99% 0 in 0 W/m2
06:56 57.6 °F 57.4 °F 30 in Calm   5.4 mph 99% 0 in 0 W/m2
07:02 57.6 °F 57.4 °F 30 in Calm   3.1 mph 99% 0 in 0 W/m2
07:08 57.4 °F 57 °F 30 in Calm   3.1 mph 99% 0 in 0 W/m2
07:14 57.4 °F 57 °F 30 in Calm   2.2 mph 99% 0 in 2 W/m2
07:20 57.4 °F 57 °F 30 in Calm   3.1 mph 99% 0 in 6 W/m2
07:26 57.4 °F 57 °F 30 in NNW 2.2 mph 4.5 mph 99% 0 in 10 W/m2
07:30 57.6 °F 57.4 °F 30 in NNW 2.2 mph 4.5 mph 99% 0 in 13 W/m2
07:42 57.7 °F 57.6 °F 30 in Calm   5.4 mph 99% 0 in 25 W/m2
07:48 58.1 °F 57.7 °F 30 in Calm   4.5 mph 99% 0 in 30 W/m2
07:54 58.3 °F 57.9 °F 30 in Calm   3.1 mph 99% 0 in 43 W/m2
08:00 58.6 °F 58.5 °F 30 in NW 1.6 mph 4.5 mph 99% 0 in 97 W/m2
08:06 59 °F 58.5 °F 30 in NW 0.7 mph 5.4 mph 98% 0 in 88 W/m2
08:12 59.5 °F 59 °F 30 in NNW 3.8 mph 5.4 mph 98% 0 in 115 W/m2
08:18 60.3 °F 59.4 °F 30 in NW 2.2 mph 5.4 mph 97% 0 in 200 W/m2
08:24 61.5 °F 60.1 °F 30 in Calm   5.4 mph 95% 0 in 181 W/m2
08:30 62.4 °F 60.4 °F 30 in NNW 1.6 mph 6 mph 93% 0 in 229 W/m2
08:36 63.5 °F 60.3 °F 30 in Calm   6 mph 89% 0 in 269 W/m2
08:42 64.2 °F 59.5 °F 30 in North 1.6 mph 5.4 mph 85% 0.01 in 267 W/m2
08:48 65.5 °F 61 °F 30 in Calm   5.4 mph 85% 0.01 in 291 W/m2
08:54 66 °F 60.6 °F 30 in Calm   1.6 mph 83% 0.01 in 167 W/m2
09:00 66 °F 60.4 °F 30 in Calm     82% 0.01 in 97 W/m2
09:06 64.9 °F 59.7 °F 30 in Calm     83% 0.01 in 108 W/m2
09:12 65.5 °F 61.2 °F 30 in NW 3.8 mph 6 mph 86% 0.01 in 329 W/m2
09:18 66.9 °F 62.1 °F 30 in NW 0.7 mph 6 mph 84% 0.01 in 420 W/m2
09:24 68.7 °F 62.8 °F 30 in NW 5.4 mph 6.9 mph 81% 0.01 in 398 W/m2
09:30 69.8 °F 62.2 °F 30 in NNW 3.8 mph 6.9 mph 77% 0.01 in 369 W/m2
09:36 69.4 °F 61.5 °F 30 in NW 2.2 mph 7.6 mph 76% 0.01 in 182 W/m2
09:42 68.9 °F 61.9 °F 30 in NW 1.6 mph 6 mph 78% 0 in 221 W/m2
09:48 68.7 °F 61.5 °F 30 in NNW 3.1 mph 6 mph 78% 0 in 268 W/m2
09:54 69.1 °F 62.2 °F 30 in NW 1.6 mph 5.4 mph 79% 0 in 321 W/m2
10:00 70.3 °F 63.1 °F 30 in NNW 2.2 mph 4.5 mph 78% 0 in 323 W/m2
10:06 71.4 °F 62.8 °F 30 in North 4.5 mph 6 mph 74% 0 in 377 W/m2
10:12 72.1 °F 62.2 °F 30 in Calm   6 mph 71% 0 in 259 W/m2
10:18 72.7 °F 62.8 °F 30 in North 4.5 mph 6.9 mph 71% 0 in 254 W/m2
10:24 71.6 °F 61.7 °F 30 in NNW 3.8 mph 8.3 mph 71% 0 in 249 W/m2
10:30 71.8 °F 62.8 °F 30 in NNW 3.1 mph 8.3 mph 73% 0 in 247 W/m2
10:36 71.8 °F 62.8 °F 30 in NW 1.6 mph 6 mph 73% 0 in 265 W/m2
10:42 71.8 °F 62.2 °F 30 in NNW 3.1 mph 6 mph 72% 0 in 346 W/m2
10:48 72.9 °F 62.4 °F 30 in Calm   6.9 mph 70% 0 in 479 W/m2
10:54 73.9 °F 62.8 °F 30 in NNW 4.5 mph 6.9 mph 68% 0 in 340 W/m2
11:00 73.2 °F 63.3 °F 30 in NNW 6 mph 8.3 mph 71% 0 in 239 W/m2
11:06 72.7 °F 62.8 °F 30 in NNW 1.6 mph 8.3 mph 71% 0 in 228 W/m2
11:12 72.7 °F 62.8 °F 30 in NNW 3.8 mph 8.3 mph 71% 0 in 298 W/m2
11:18 74.8 °F 64.4 °F 30 in NNW 3.8 mph 8.3 mph 70% 0 in 257 W/m2
11:24 74.3 °F 63.1 °F 30 in NW 3.1 mph 7.6 mph 68% 0 in 220 W/m2
11:30 73.8 °F 63 °F 30 in North 3.8 mph 8.3 mph 69% 0 in 258 W/m2
11:36 73.9 °F 63.7 °F 30 in North 4.5 mph 9.2 mph 70% 0 in 616 W/m2
11:42 74.5 °F 64 °F 30 in NNE 3.8 mph 9.2 mph 70% 0 in 394 W/m2
11:48 74.3 °F 62.8 °F 30 in North 3.1 mph 9.8 mph 67% 0 in 336 W/m2
11:54 75.4 °F 63.3 °F 30 in North 3.1 mph 9.8 mph 66% 0 in 423 W/m2
12:00 76.8 °F 64.6 °F 30 in North 3.8 mph 9.8 mph 66% 0 in 484 W/m2
12:06 77.7 °F 62.8 °F 30 in NNW 3.8 mph 9.2 mph 60% 0 in 719 W/m2
12:12 77.2 °F 62.8 °F 30 in North 6 mph 9.8 mph 61% 0 in 522 W/m2
12:18 78.1 °F 63.7 °F 30 in North 7.6 mph 10.7 mph 61% 0 in 411 W/m2
12:24 76.3 °F 63.1 °F 30 in North 6 mph 11.4 mph 64% 0 in 281 W/m2
12:30 75 °F 63 °F 30 in North 5.4 mph 10.7 mph 66% 0 in 164 W/m2
12:36 74.1 °F 63 °F 30 in North 6 mph 9.2 mph 68% 0 in 261 W/m2
12:42 74.5 °F 63.7 °F 30 in North 7.6 mph 9.8 mph 69% 0 in 293 W/m2
12:48 74.1 °F 63.7 °F 30 in North 4.5 mph 9.8 mph 70% 0 in 271 W/m2
12:54 73.9 °F 64.8 °F 30 in North 3.8 mph 7.6 mph 73% 0 in 262 W/m2
13:00 73.4 °F 64.2 °F 30 in North 3.1 mph 9.8 mph 73% 0 in 315 W/m2
13:06 73.6 °F 64.8 °F 29.9 in North 10.7 mph 12.1 mph 74% 0 in 293 W/m2
13:12 72.9 °F 63.3 °F 30 in NNE 6 mph 12.1 mph 72% 0 in 275 W/m2
13:18 72.1 °F 61.9 °F 29.9 in North 6 mph 13.6 mph 70% 0 in 224 W/m2
13:24 72.1 °F 61.9 °F 30 in North 4.5 mph 13 mph 70% 0 in 245 W/m2
13:30 72 °F 61.3 °F 29.9 in North 3.1 mph 10.7 mph 69% 0 in 193 W/m2
13:36 72.1 °F 61.3 °F 29.9 in North 5.4 mph 8.3 mph 69% 0 in 219 W/m2
13:42 72.1 °F 61.9 °F 29.9 in North 6.9 mph 11.4 mph 70% 0 in 235 W/m2
13:48 71.8 °F 61.9 °F 29.9 in NNE 6 mph 11.4 mph 71% 0 in 278 W/m2
13:54 71.8 °F 61.5 °F 29.9 in NNE 6.9 mph 11.4 mph 70% 0 in 328 W/m2
14:00 72.1 °F 62.2 °F 29.9 in North 6.9 mph 10.7 mph 71% 0 in 345 W/m2
14:06 72.1 °F 62.2 °F 29.9 in North 4.5 mph 10.7 mph 71% 0 in 328 W/m2
14:12 73 °F 62.2 °F 29.9 in NNE 4.5 mph 11.4 mph 69% 0 in 397 W/m2
14:18 73.8 °F 62.2 °F 29.9 in NNE 6 mph 11.4 mph 67% 0 in 347 W/m2
14:30 73.4 °F 61.9 °F 29.9 in NNE 3.8 mph 11.4 mph 67% 0 in 264 W/m2
14:36 73.2 °F 61.2 °F 29.9 in NNE 6.9 mph 11.4 mph 66% 0 in 251 W/m2
14:42 73 °F 62.2 °F 29.9 in North 3.8 mph 10.7 mph 69% 0 in 219 W/m2
14:48 72.9 °F 61.7 °F 29.9 in North 4.5 mph 9.2 mph 68% 0 in 207 W/m2
14:54 72.7 °F 62.1 °F 29.9 in NNW 3.8 mph 9.2 mph 69% 0 in 232 W/m2
15:00 73 °F 63.1 °F 29.9 in NNW 4.5 mph 8.3 mph 71% 0 in 336 W/m2
15:06 73.8 °F 63 °F 29.9 in NNE 5.4 mph 9.8 mph 69% 0 in 308 W/m2
15:12 73.6 °F 62.8 °F 29.9 in NNE 4.5 mph 9.8 mph 69% 0 in 273 W/m2
15:18 73 °F 62.8 °F 29.9 in North 3.1 mph 11.4 mph 70% 0 in 164 W/m2
15:24 72.3 °F 62.4 °F 29.9 in North 5.4 mph 9.2 mph 71% 0 in 131 W/m2
15:30 71.8 °F 62.2 °F 29.9 in North 4.5 mph 10.7 mph 72% 0 in 121 W/m2
15:36 71.8 °F 62.8 °F 29.9 in North 5.4 mph 10.7 mph 73% 0 in 125 W/m2
15:42 71.6 °F 62.1 °F 29.9 in NNW 5.4 mph 9.2 mph 72% 0 in 109 W/m2
15:48 71.4 °F 62.2 °F 29.9 in NNW 6 mph 10.7 mph 73% 0 in 103 W/m2
15:54 71.2 °F 62.6 °F 29.9 in NNW 4.5 mph 10.7 mph 74% 0 in 100 W/m2
16:00 71.2 °F 62.6 °F 29.9 in NNW 6 mph 9.2 mph 74% 0 in 108 W/m2
16:06 71.2 °F 62.6 °F 29.9 in NNW 3.8 mph 9.2 mph 74% 0 in 122 W/m2
16:12 71.2 °F 62.2 °F 29.9 in North 3.8 mph 7.6 mph 73% 0 in 124 W/m2
16:18 71.4 °F 62.2 °F 29.9 in NNW 2.2 mph 7.6 mph 73% 0 in 123 W/m2
16:24 71.4 °F 62.8 °F 29.9 in NNW 4.5 mph 9.2 mph 74% 0 in 106 W/m2
16:30 71.4 °F 62.8 °F 29.9 in NNW 3.8 mph 9.2 mph 74% 0 in 95 W/m2
16:36 71.2 °F 62.6 °F 29.9 in NNW 5.4 mph 6.9 mph 74% 0 in 84 W/m2
16:42 71.1 °F 62.4 °F 29.9 in NNW 3.1 mph 6.9 mph 74% 0 in 72 W/m2
16:48 70.9 °F 62.6 °F 29.9 in North 1.6 mph 6.9 mph 75% 0 in 68 W/m2
16:54 70.9 °F 62.6 °F 29.9 in North 2.2 mph 6.9 mph 75% 0 in 61 W/m2
17:00 70.7 °F 62.1 °F 29.9 in North 5.4 mph 8.3 mph 74% 0 in 61 W/m2
17:06 70.7 °F 61.3 °F 29.9 in NNW 4.5 mph 9.8 mph 72% 0 in 79 W/m2
17:12 71.2 °F 59.4 °F 29.8 in NNW 9.2 mph 13 mph 66% 0 in 94 W/m2
17:18 71.4 °F 58.6 °F 29.8 in NNW 6.9 mph 13 mph 64% 0 in 96 W/m2
17:24 71.6 °F 57.9 °F 29.9 in NNW 5.4 mph 12.1 mph 62% 0 in 88 W/m2
17:30 71.4 °F 57.7 °F 29.9 in NNW 6 mph 12.1 mph 62% 0 in 79 W/m2
17:36 71.2 °F 56.7 °F 29.9 in NNW 9.8 mph 14.5 mph 60% 0 in 75 W/m2
17:42 71.2 °F 56.7 °F 29.9 in NNW 5.4 mph 14.5 mph 60% 0 in 71 W/m2
17:48 71.2 °F 56.1 °F 29.9 in NNW 4.5 mph 12.1 mph 59% 0 in 81 W/m2
17:54 71.2 °F 56.1 °F 29.9 in NNW 3.1 mph 12.1 mph 59% 0 in 83 W/m2
18:00 71.1 °F 55.9 °F 29.9 in NNW 0.7 mph 6.9 mph 59% 0 in 74 W/m2
18:06 71.1 °F 55.9 °F 29.9 in NNW 3.1 mph 6.9 mph 59% 0 in 64 W/m2
18:12 70.7 °F 56.7 °F 29.9 in NNW 4.5 mph 6 mph 61% 0 in 47 W/m2
18:18 70.3 °F 56.7 °F 29.9 in NNW 5.4 mph 8.3 mph 62% 0 in 33 W/m2
18:24 70 °F 57.4 °F 29.9 in NNW 4.5 mph 8.3 mph 64% 0 in 35 W/m2
18:30 69.8 °F 57.6 °F 29.9 in NNW 1.6 mph 6 mph 65% 0 in 42 W/m2
18:36 69.8 °F 57.6 °F 29.9 in NW 3.1 mph 6 mph 65% 0 in 40 W/m2
18:42 69.6 °F 58.6 °F 29.9 in NNW 4.5 mph 7.6 mph 68% 0 in 28 W/m2
18:48 69.3 °F 57.9 °F 29.9 in NNW 3.8 mph 9.2 mph 67% 0 in 23 W/m2
18:54 69.3 °F 57.4 °F 29.9 in North 4.5 mph 9.2 mph 66% 0 in 13 W/m2
19:00 69.1 °F 57.4 °F 29.9 in North 1.6 mph 7.6 mph 66% 0 in 10 W/m2
19:06 68.9 °F 57 °F 29.9 in North 2.2 mph 6.9 mph 66% 0 in 6 W/m2
19:12 68.5 °F 57.2 °F 29.9 in North 3.1 mph 7.6 mph 67% 0 in 2 W/m2
19:18 68.2 °F 57.2 °F 29.9 in North 3.1 mph 4.5 mph 68% 0 in 0 W/m2
19:24 67.6 °F 57.6 °F 29.9 in North 3.8 mph 5.4 mph 70% 0 in 0 W/m2
19:30 67.5 °F 57.7 °F 29.9 in NNW 4.5 mph 6 mph 71% 0 in 0 W/m2
19:36 67.3 °F 57.6 °F 29.9 in NNW 3.8 mph 6 mph 71% 0 in 0 W/m2
19:42 67.5 °F 57.7 °F 29.9 in NW 5.4 mph 6.9 mph 71% 0 in 0 W/m2
19:48 67.3 °F 57.6 °F 29.9 in NNW 2.2 mph 6.9 mph 71% 0 in 0 W/m2
19:54 67.1 °F 57.4 °F 29.8 in NNW 3.8 mph 6 mph 71% 0 in 0 W/m2
20:00 66.7 °F 57.4 °F 29.9 in NNW 4.5 mph 7.6 mph 72% 0 in 0 W/m2
20:06 66.7 °F 57.7 °F 29.9 in NW 3.8 mph 8.3 mph 73% 0 in 0 W/m2
20:12 66.7 °F 57.7 °F 29.9 in NW 4.5 mph 8.3 mph 73% 0 in 0 W/m2
20:18 66.7 °F 57.7 °F 29.9 in NW 3.1 mph 9.2 mph 73% 0 in 0 W/m2
20:24 66.7 °F 57.7 °F 29.9 in NW 4.5 mph 9.2 mph 73% 0 in 0 W/m2
20:30 66.7 °F 57.7 °F 29.9 in NW 3.8 mph 7.6 mph 73% 0 in 0 W/m2
20:36 66.6 °F 57.7 °F 29.9 in NW 3.1 mph 7.6 mph 73% 0 in 0 W/m2
20:42 66.6 °F 57.7 °F 29.9 in NW 3.8 mph 6.9 mph 73% 0 in 0 W/m2
20:48 66.7 °F 57.7 °F 29.9 in NW 3.8 mph 6 mph 73% 0 in 0 W/m2
20:54 66.6 °F 57.7 °F 29.9 in NW 3.8 mph 6 mph 73% 0 in 0 W/m2
21:00 66.6 °F 57.7 °F 29.9 in NW 3.1 mph 4.5 mph 73% 0 in 0 W/m2
21:06 66.2 °F 57.7 °F 29.9 in NNW 3.8 mph 4.5 mph 74% 0 in 0 W/m2
21:12 66 °F 57.9 °F 29.9 in NNW 1.6 mph 4.5 mph 75% 0 in 0 W/m2
21:18 66.2 °F 57.7 °F 29.9 in North 4.5 mph 5.4 mph 74% 0 in 0 W/m2
21:24 66.2 °F 57.7 °F 29.9 in North 3.1 mph 6.9 mph 74% 0 in 0 W/m2
21:30 66.4 °F 57.9 °F 29.9 in North 4.5 mph 8.3 mph 74% 0 in 0 W/m2
21:36 66.4 °F 57.6 °F 29.9 in North 2.2 mph 8.3 mph 73% 0 in 0 W/m2
21:42 66.2 °F 57.4 °F 29.9 in NNE 1.6 mph 6 mph 73% 0 in 0 W/m2
21:48 66 °F 57.9 °F 29.9 in North 2.2 mph 5.4 mph 75% 0 in 0 W/m2
21:54 65.7 °F 57.6 °F 29.9 in North 2.2 mph 4.5 mph 75% 0 in 0 W/m2
22:00 65.8 °F 58.1 °F 29.9 in North 3.1 mph 7.6 mph 76% 0 in 0 W/m2
22:06 66.2 °F 57.7 °F 29.9 in North 1.6 mph 7.6 mph 74% 0 in 0 W/m2
22:12 66.7 °F 57.7 °F 29.9 in North 5.4 mph 8.3 mph 73% 0 in 0 W/m2
22:18 66.9 °F 57.9 °F 29.9 in North 3.8 mph 8.3 mph 73% 0 in 0 W/m2
22:24 66.7 °F 57.7 °F 29.9 in North 3.8 mph 8.3 mph 73% 0 in 0 W/m2
22:30 66.7 °F 58.3 °F 29.9 in North 4.5 mph 8.3 mph 74% 0 in 0 W/m2
22:36 66.7 °F 58.3 °F 29.9 in North 3.8 mph 8.3 mph 74% 0 in 0 W/m2
22:42 66.9 °F 58.5 °F 29.9 in North 3.1 mph 7.6 mph 74% 0 in 0 W/m2
22:48 66.9 °F 58.5 °F 29.9 in North 2.2 mph 7.6 mph 74% 0 in 0 W/m2
22:54 66.9 °F 58.5 °F 29.9 in NNW 0.7 mph 5.4 mph 74% 0 in 0 W/m2
23:00 66.7 °F 58.3 °F 29.9 in Calm   5.4 mph 74% 0 in 0 W/m2
23:06 66.2 °F 57.7 °F 29.9 in Calm   2.2 mph 74% 0 in 0 W/m2
23:12 65.8 °F 58.1 °F 29.9 in Calm   2.2 mph 76% 0 in 0 W/m2
23:18 65.5 °F 58.1 °F 29.9 in Calm   2.2 mph 77% 0 in 0 W/m2
23:24 65.1 °F 57.7 °F 29.9 in Calm     77% 0 in 0 W/m2
23:30 64.8 °F 57.7 °F 29.9 in Calm     78% 0 in 0 W/m2
23:36 64.4 °F 58.5 °F 29.9 in NW 3.1 mph 4.5 mph 81% 0 in 0 W/m2
23:42 64.2 °F 58.6 °F 29.9 in WNW 2.2 mph 4.5 mph 82% 0 in 0 W/m2
23:48 64.4 °F 59.2 °F 29.9 in Calm   3.8 mph 83% 0 in 0 W/m2
23:54 64.2 °F 58.6 °F 29.9 in Calm   2.2 mph 82% 0 in 0 W/m2
Northern Hawkes Bay. New Zealand Historic Data
Compliments of Weather Underground - 1.75 mb